Norwegian Sky — C6PZ8 — position and weather

sailwx.info

Track history (hours):
 
Tides and Currents Weather Stations Pressure Air Temp Water Temp Dewpoint Dewpoint Depression Visibility Wind Speed Wind Dir Waves Ship Positions

Norwegian Sky (Norway)

Operator: Norwegian Cruise Line

Last reported at 2019-Jan-22 02:34 UTC. Time now 2019-Jan-24 06:49 UTC.
Position N 26°17' W 079°17'.

Length 258 m; draft 8 m.

Type: Ship. MMSI: 308865000.

Date/timePositionNaut miles runAvg speedWind from/ knotsBaromVisibWave heightAir tempDewpointWater temp
2019-Jan-22 02:34N 26°17' W 079°17'110.6
2019-Jan-22 02:30N 26°16' W 079°17'816.9
2019-Jan-22 02:00N 26°09' W 079°22'713.3
2019-Jan-22 01:30N 26°05' W 079°28'1121.3
2019-Jan-22 01:00N 25°60' W 079°38'1121.1
2019-Jan-22 00:30N 25°54' W 079°48'1021.0
2019-Jan-22 00:00N 25°49' W 079°58'714.5
2019-Jan-21 23:30N 25°46' W 080°06'4 7.9
2019-Jan-21 23:00N 25°47' W 080°10'0 0.1
2019-Jan-21 22:28N 25°47' W 080°10'0 0.0
2019-Jan-21 21:58N 25°47' W 080°10'0 0.0
2019-Jan-21 21:30N 25°47' W 080°10'0 0.0
2019-Jan-21 21:00N 25°47' W 080°10'0 0.0
2019-Jan-21 20:30N 25°47' W 080°10'0 0.0
2019-Jan-21 20:00N 25°47' W 080°10'0 0.0
2019-Jan-21 19:30N 25°47' W 080°10'0 0.0
2019-Jan-21 18:56N 25°47' W 080°10'0 0.0
2019-Jan-21 18:23N 25°47' W 080°10'0 0.0
2019-Jan-21 17:59N 25°47' W 080°10'0 0.0
2019-Jan-21 17:29N 25°47' W 080°10'0 0.0
2019-Jan-21 16:58N 25°47' W 080°10'0 0.0
2019-Jan-21 16:28N 25°47' W 080°10'0 0.0
2019-Jan-21 15:58N 25°47' W 080°10'0 0.0
2019-Jan-21 15:28N 25°47' W 080°10'0 0.0
2019-Jan-21 15:01N 25°47' W 080°10'0 0.0
2019-Jan-21 14:30N 25°47' W 080°10'0 0.0
2019-Jan-21 14:00N 25°47' W 080°10'0 0.0
2019-Jan-21 13:30N 25°47' W 080°10'0 0.0
2019-Jan-21 13:00N 25°47' W 080°10'0 0.0
2019-Jan-21 12:29N 25°47' W 080°10'0 0.0
2019-Jan-21 11:56N 25°47' W 080°10'0 0.0
2019-Jan-21 11:29N 25°47' W 080°10'0 0.0
2019-Jan-21 10:59N 25°47' W 080°10'0 0.0
2019-Jan-21 10:29N 25°47' W 080°10'0 0.0
2019-Jan-21 09:58N 25°47' W 080°10'0 0.4
2019-Jan-21 09:30N 25°47' W 080°10'1 1.2
2019-Jan-21 09:00N 25°46' W 080°10'510.2
2019-Jan-21 08:30N 25°46' W 080°04'612.2
2019-Jan-21 08:00N 25°47' W 079°57'815.9
2019-Jan-21 07:30N 25°47' W 079°48'714.5
2019-Jan-21 07:00N 25°49' W 079°41'611.2
2019-Jan-21 06:30N 25°53' W 079°36'5 9.3
2019-Jan-21 06:00N 25°56' W 079°33'5 9.4
2019-Jan-21 05:30N 25°60' W 079°29'5 9.7
2019-Jan-21 05:00N 26°03' W 079°26'611.5
2019-Jan-21 04:31N 26°06' W 079°20'14 0.3
2019-Jan-19 02:19N 26°20' W 079°26'3 9.1
2019-Jan-19 01:59N 26°22' W 079°28'13 0.8
2019-Jan-18 08:53N 26°12' W 079°19'719.4
2019-Jan-18 08:31N 26°05' W 079°23'1020.1
2019-Jan-18 08:01N 25°57' W 079°29'1020.4
2019-Jan-18 07:30N 25°48' W 079°34'1020.6
2019-Jan-18 07:01N 25°38' W 079°36'1020.0
2019-Jan-18 06:31N 25°28' W 079°37'6 0.2
2019-Jan-17 01:50N 25°24' W 079°42'617.3
2019-Jan-17 01:30N 25°28' W 079°46'917.4
2019-Jan-17 01:00N 25°35' W 079°53'917.6
2019-Jan-17 00:30N 25°41' W 079°59'815.1
2019-Jan-17 00:00N 25°46' W 080°06'5 9.5
2019-Jan-16 23:31N 25°47' W 080°11'1 1.6
2019-Jan-16 23:00N 25°47' W 080°10'0 0.0
2019-Jan-16 22:30N 25°47' W 080°10'0 0.0
2019-Jan-16 21:57N 25°47' W 080°10'0 0.0
2019-Jan-16 21:30N 25°47' W 080°10'0 0.0
2019-Jan-16 20:59N 25°47' W 080°10'0 0.0
2019-Jan-16 20:29N 25°47' W 080°10'0 0.0
2019-Jan-16 19:59N 25°47' W 080°10'0 0.0
2019-Jan-16 19:29N 25°47' W 080°10'0 0.0
2019-Jan-16 18:52N 25°47' W 080°10'0 0.0
2019-Jan-16 18:28N 25°47' W 080°10'0 0.0
2019-Jan-16 17:58N 25°47' W 080°10'0 0.0
2019-Jan-16 17:28N 25°47' W 080°10'0 0.0
2019-Jan-16 16:55N 25°47' W 080°10'0 0.0
2019-Jan-16 16:30N 25°47' W 080°10'0 0.0
2019-Jan-16 16:00N 25°47' W 080°10'0 0.0
2019-Jan-16 15:30N 25°47' W 080°10'0 0.0
2019-Jan-16 15:00N 25°47' W 080°10'0 0.0
2019-Jan-16 14:30N 25°47' W 080°10'0 0.0
2019-Jan-16 13:59N 25°47' W 080°10'0 0.0
2019-Jan-16 13:29N 25°47' W 080°10'0 0.0
2019-Jan-16 12:59N 25°47' W 080°10'0 0.0
2019-Jan-16 12:29N 25°47' W 080°10'0 0.0
2019-Jan-16 11:52N 25°47' W 080°10'0 0.0
2019-Jan-16 11:28N 25°47' W 080°10'0 0.0
2019-Jan-16 11:01N 25°47' W 080°10'1 1.5
2019-Jan-16 10:30N 25°46' W 080°09'510.1
2019-Jan-16 10:01N 25°46' W 080°04'510.3
2019-Jan-16 09:30N 25°47' W 079°58'5 9.1
2019-Jan-16 09:00N 25°47' W 079°53'5 9.1
2019-Jan-16 08:30N 25°47' W 079°48'5 9.0
2019-Jan-16 08:00N 25°47' W 079°43'4 8.2
2019-Jan-16 07:30N 25°43' W 079°41'612.1
2019-Jan-16 07:00N 25°37' W 079°40'5 9.4
2019-Jan-16 06:30N 25°33' W 079°40'5 9.2
2019-Jan-16 05:59N 25°28' W 079°40'  
2019-Jan-12 20:04N 25°30' W 079°30'215.4
2019-Jan-12 19:55N 25°33' W 079°30'715.7
2019-Jan-12 19:30N 25°39' W 079°28'815.5
2019-Jan-12 19:00N 25°47' W 079°27'23 1.5
2019-Jan-12 04:23N 26°08' W 079°20'4 9.9
2019-Jan-12 03:59N 26°05' W 079°23'1010.0
2019-Jan-12 02:59N 25°58' W 079°30'  
Track history (hours):
 
Tides and Currents Weather Stations Pressure Air Temp Water Temp Dewpoint Dewpoint Depression Visibility Wind Speed Wind Dir Waves Ship Positions

Norwegian Sky (Norway)

Operator: Norwegian Cruise Line

Last reported at 2019-Jan-22 02:34 UTC. Time now 2019-Jan-24 06:49 UTC.
Position N 26°17' W 079°17'.

Length 258 m; draft 8 m.

Type: Ship. MMSI: 308865000.

Date/timePositionNaut miles runAvg speedWind from/ knotsBaromVisibWave heightAir tempDewpointWater temp
2019-Jan-22 02:34N 26°17' W 079°17'110.6
2019-Jan-22 02:30N 26°16' W 079°17'816.9
2019-Jan-22 02:00N 26°09' W 079°22'713.3
2019-Jan-22 01:30N 26°05' W 079°28'1121.3
2019-Jan-22 01:00N 25°60' W 079°38'1121.1
2019-Jan-22 00:30N 25°54' W 079°48'1021.0
2019-Jan-22 00:00N 25°49' W 079°58'714.5
2019-Jan-21 23:30N 25°46' W 080°06'4 7.9
2019-Jan-21 23:00N 25°47' W 080°10'0 0.1
2019-Jan-21 22:28N 25°47' W 080°10'0 0.0
2019-Jan-21 21:58N 25°47' W 080°10'0 0.0
2019-Jan-21 21:30N 25°47' W 080°10'0 0.0
2019-Jan-21 21:00N 25°47' W 080°10'0 0.0
2019-Jan-21 20:30N 25°47' W 080°10'0 0.0
2019-Jan-21 20:00N 25°47' W 080°10'0 0.0
2019-Jan-21 19:30N 25°47' W 080°10'0 0.0
2019-Jan-21 18:56N 25°47' W 080°10'0 0.0
2019-Jan-21 18:23N 25°47' W 080°10'0 0.0
2019-Jan-21 17:59N 25°47' W 080°10'0 0.0
2019-Jan-21 17:29N 25°47' W 080°10'0 0.0
2019-Jan-21 16:58N 25°47' W 080°10'0 0.0
2019-Jan-21 16:28N 25°47' W 080°10'0 0.0
2019-Jan-21 15:58N 25°47' W 080°10'0 0.0
2019-Jan-21 15:28N 25°47' W 080°10'0 0.0
2019-Jan-21 15:01N 25°47' W 080°10'0 0.0
2019-Jan-21 14:30N 25°47' W 080°10'0 0.0
2019-Jan-21 14:00N 25°47' W 080°10'0 0.0
2019-Jan-21 13:30N 25°47' W 080°10'0 0.0
2019-Jan-21 13:00N 25°47' W 080°10'0 0.0
2019-Jan-21 12:29N 25°47' W 080°10'0 0.0
2019-Jan-21 11:56N 25°47' W 080°10'0 0.0
2019-Jan-21 11:29N 25°47' W 080°10'0 0.0
2019-Jan-21 10:59N 25°47' W 080°10'0 0.0
2019-Jan-21 10:29N 25°47' W 080°10'0 0.0
2019-Jan-21 09:58N 25°47' W 080°10'0 0.4
2019-Jan-21 09:30N 25°47' W 080°10'1 1.2
2019-Jan-21 09:00N 25°46' W 080°10'510.2
2019-Jan-21 08:30N 25°46' W 080°04'612.2
2019-Jan-21 08:00N 25°47' W 079°57'815.9
2019-Jan-21 07:30N 25°47' W 079°48'714.5
2019-Jan-21 07:00N 25°49' W 079°41'611.2
2019-Jan-21 06:30N 25°53' W 079°36'5 9.3
2019-Jan-21 06:00N 25°56' W 079°33'5 9.4
2019-Jan-21 05:30N 25°60' W 079°29'5 9.7
2019-Jan-21 05:00N 26°03' W 079°26'611.5
2019-Jan-21 04:31N 26°06' W 079°20'14 0.3
2019-Jan-19 02:19N 26°20' W 079°26'3 9.1
2019-Jan-19 01:59N 26°22' W 079°28'13 0.8
2019-Jan-18 08:53N 26°12' W 079°19'719.4
2019-Jan-18 08:31N 26°05' W 079°23'1020.1
2019-Jan-18 08:01N 25°57' W 079°29'1020.4
2019-Jan-18 07:30N 25°48' W 079°34'1020.6
2019-Jan-18 07:01N 25°38' W 079°36'1020.0
2019-Jan-18 06:31N 25°28' W 079°37'6 0.2
2019-Jan-17 01:50N 25°24' W 079°42'617.3
2019-Jan-17 01:30N 25°28' W 079°46'917.4
2019-Jan-17 01:00N 25°35' W 079°53'917.6
2019-Jan-17 00:30N 25°41' W 079°59'815.1
2019-Jan-17 00:00N 25°46' W 080°06'5 9.5
2019-Jan-16 23:31N 25°47' W 080°11'1 1.6
2019-Jan-16 23:00N 25°47' W 080°10'0 0.0
2019-Jan-16 22:30N 25°47' W 080°10'0 0.0
2019-Jan-16 21:57N 25°47' W 080°10'0 0.0
2019-Jan-16 21:30N 25°47' W 080°10'0 0.0
2019-Jan-16 20:59N 25°47' W 080°10'0 0.0
2019-Jan-16 20:29N 25°47' W 080°10'0 0.0
2019-Jan-16 19:59N 25°47' W 080°10'0 0.0
2019-Jan-16 19:29N 25°47' W 080°10'0 0.0
2019-Jan-16 18:52N 25°47' W 080°10'0 0.0
2019-Jan-16 18:28N 25°47' W 080°10'0 0.0
2019-Jan-16 17:58N 25°47' W 080°10'0 0.0
2019-Jan-16 17:28N 25°47' W 080°10'0 0.0
2019-Jan-16 16:55N 25°47' W 080°10'0 0.0
2019-Jan-16 16:30N 25°47' W 080°10'0 0.0
2019-Jan-16 16:00N 25°47' W 080°10'0 0.0
2019-Jan-16 15:30N 25°47' W 080°10'0 0.0
2019-Jan-16 15:00N 25°47' W 080°10'0 0.0
2019-Jan-16 14:30N 25°47' W 080°10'0 0.0
2019-Jan-16 13:59N 25°47' W 080°10'0 0.0
2019-Jan-16 13:29N 25°47' W 080°10'0 0.0
2019-Jan-16 12:59N 25°47' W 080°10'0 0.0
2019-Jan-16 12:29N 25°47' W 080°10'0 0.0
2019-Jan-16 11:52N 25°47' W 080°10'0 0.0
2019-Jan-16 11:28N 25°47' W 080°10'0 0.0
2019-Jan-16 11:01N 25°47' W 080°10'1 1.5
2019-Jan-16 10:30N 25°46' W 080°09'510.1
2019-Jan-16 10:01N 25°46' W 080°04'510.3
2019-Jan-16 09:30N 25°47' W 079°58'5 9.1
2019-Jan-16 09:00N 25°47' W 079°53'5 9.1
2019-Jan-16 08:30N 25°47' W 079°48'5 9.0
2019-Jan-16 08:00N 25°47' W 079°43'4 8.2
2019-Jan-16 07:30N 25°43' W 079°41'612.1
2019-Jan-16 07:00N 25°37' W 079°40'5 9.4
2019-Jan-16 06:30N 25°33' W 079°40'5 9.2
2019-Jan-16 05:59N 25°28' W 079°40'  
2019-Jan-12 20:04N 25°30' W 079°30'215.4
2019-Jan-12 19:55N 25°33' W 079°30'715.7
2019-Jan-12 19:30N 25°39' W 079°28'815.5
2019-Jan-12 19:00N 25°47' W 079°27'23 1.5
2019-Jan-12 04:23N 26°08' W 079°20'4 9.9
2019-Jan-12 03:59N 26°05' W 079°23'1010.0
2019-Jan-12 02:59N 25°58' W 079°30'  

Dump ship's entire track history